Terminal Aerodrome Forecast
Issued by NWS

Home | Current Version | Previous Version | Text Only | Print | Product List | Glossary On
Versions: 1 2 3 4 5 6 7 8 9 10 11 12 13 14 15 16 17 18 19 20 21 22 23 24 25 26 27
933
FTUS43 KAPX 190520
TAFMBL
TAF
KMBL 190520Z 1906/2006 21006KT P6SM OVC009
     FM190800 22006KT 6SM BR BKN003
     FM192100 19005KT P6SM SCT035
     FM192300 18004KT P6SM BKN020
     FM200300 00000KT 5SM BR BKN050
     FM200500 00000KT P6SM BKN060=

USA.gov is the U.S. government's official web portal to all federal, state and local government web resources and services.